sensor_id;sensor_type;location;lat;lon;timestamp;temperature;humidity
17795;DHT22;9021;50.882;4.326;2023-04-03T00:00:59;6.20;99.90
17795;DHT22;9021;50.882;4.326;2023-04-03T00:03:25;6.20;99.90
17795;DHT22;9021;50.882;4.326;2023-04-03T00:05:51;6.20;99.90
17795;DHT22;9021;50.882;4.326;2023-04-03T00:08:16;6.20;99.90
17795;DHT22;9021;50.882;4.326;2023-04-03T00:10:42;6.20;99.90
17795;DHT22;9021;50.882;4.326;2023-04-03T00:13:08;6.20;99.90
17795;DHT22;9021;50.882;4.326;2023-04-03T00:15:35;6.20;99.90
17795;DHT22;9021;50.882;4.326;2023-04-03T00:18:02;6.20;99.90
17795;DHT22;9021;50.882;4.326;2023-04-03T00:20:28;6.20;99.90
17795;DHT22;9021;50.882;4.326;2023-04-03T00:22:54;6.10;99.90
17795;DHT22;9021;50.882;4.326;2023-04-03T00:25:19;6.10;99.90
17795;DHT22;9021;50.882;4.326;2023-04-03T00:27:45;6.10;99.90
17795;DHT22;9021;50.882;4.326;2023-04-03T00:30:13;6.10;99.90
17795;DHT22;9021;50.882;4.326;2023-04-03T00:32:39;6.10;99.90
17795;DHT22;9021;50.882;4.326;2023-04-03T00:35:05;6.10;99.90
17795;DHT22;9021;50.882;4.326;2023-04-03T00:37:32;6.10;99.90
17795;DHT22;9021;50.882;4.326;2023-04-03T00:39:57;6.10;99.90
17795;DHT22;9021;50.882;4.326;2023-04-03T00:42:24;6.20;99.90
17795;DHT22;9021;50.882;4.326;2023-04-03T00:47:18;6.10;99.90
17795;DHT22;9021;50.882;4.326;2023-04-03T00:49:45;6.20;99.90
17795;DHT22;9021;50.882;4.326;2023-04-03T00:52:16;6.10;99.90
17795;DHT22;9021;50.882;4.326;2023-04-03T00:54:43;6.10;99.90
17795;DHT22;9021;50.882;4.326;2023-04-03T00:57:11;6.10;99.90
17795;DHT22;9021;50.882;4.326;2023-04-03T00:59:44;6.00;99.90
17795;DHT22;9021;50.882;4.326;2023-04-03T01:02:10;6.00;99.90
17795;DHT22;9021;50.882;4.326;2023-04-03T01:04:38;6.00;99.90
17795;DHT22;9021;50.882;4.326;2023-04-03T01:07:08;6.00;99.90
17795;DHT22;9021;50.882;4.326;2023-04-03T01:09:35;6.60;99.90
17795;DHT22;9021;50.882;4.326;2023-04-03T01:14:48;5.90;99.90
17795;DHT22;9021;50.882;4.326;2023-04-03T01:25:38;5.80;99.90
17795;DHT22;9021;50.882;4.326;2023-04-03T01:28:05;5.80;99.90
17795;DHT22;9021;50.882;4.326;2023-04-03T01:30:40;5.80;99.90
17795;DHT22;9021;50.882;4.326;2023-04-03T01:33:06;5.80;99.90
17795;DHT22;9021;50.882;4.326;2023-04-03T01:35:32;5.90;99.90
17795;DHT22;9021;50.882;4.326;2023-04-03T01:37:57;5.90;99.90
17795;DHT22;9021;50.882;4.326;2023-04-03T01:40:23;5.90;99.90
17795;DHT22;9021;50.882;4.326;2023-04-03T01:42:49;5.90;99.90
17795;DHT22;9021;50.882;4.326;2023-04-03T01:45:15;5.80;99.90
17795;DHT22;9021;50.882;4.326;2023-04-03T01:47:40;5.80;99.90
17795;DHT22;9021;50.882;4.326;2023-04-03T01:50:07;5.70;99.90
17795;DHT22;9021;50.882;4.326;2023-04-03T01:52:33;5.80;99.90
17795;DHT22;9021;50.882;4.326;2023-04-03T01:54:58;5.80;99.90
17795;DHT22;9021;50.882;4.326;2023-04-03T01:57:24;5.80;99.90
17795;DHT22;9021;50.882;4.326;2023-04-03T01:59:50;5.70;99.90
17795;DHT22;9021;50.882;4.326;2023-04-03T02:02:16;5.70;99.90
17795;DHT22;9021;50.882;4.326;2023-04-03T02:04:42;5.70;99.90
17795;DHT22;9021;50.882;4.326;2023-04-03T02:07:08;5.60;99.90
17795;DHT22;9021;50.882;4.326;2023-04-03T02:09:34;5.60;99.90
17795;DHT22;9021;50.882;4.326;2023-04-03T02:11:59;5.50;99.90
17795;DHT22;9021;50.882;4.326;2023-04-03T02:14:25;5.60;99.90
17795;DHT22;9021;50.882;4.326;2023-04-03T02:16:52;5.60;99.90
17795;DHT22;9021;50.882;4.326;2023-04-03T02:19:18;5.50;99.90
17795;DHT22;9021;50.882;4.326;2023-04-03T02:21:44;5.40;99.90
17795;DHT22;9021;50.882;4.326;2023-04-03T02:24:10;5.50;99.90
17795;DHT22;9021;50.882;4.326;2023-04-03T02:26:35;5.50;99.90
17795;DHT22;9021;50.882;4.326;2023-04-03T02:29:01;5.50;99.90
17795;DHT22;9021;50.882;4.326;2023-04-03T02:31:27;5.40;99.90
17795;DHT22;9021;50.882;4.326;2023-04-03T02:33:52;5.40;99.90
17795;DHT22;9021;50.882;4.326;2023-04-03T02:36:18;5.50;99.90
17795;DHT22;9021;50.882;4.326;2023-04-03T02:38:43;5.40;99.90
17795;DHT22;9021;50.882;4.326;2023-04-03T02:41:10;5.40;99.90
17795;DHT22;9021;50.882;4.326;2023-04-03T02:43:37;5.40;99.90
17795;DHT22;9021;50.882;4.326;2023-04-03T02:46:03;5.30;99.90
17795;DHT22;9021;50.882;4.326;2023-04-03T02:48:29;5.30;99.90
17795;DHT22;9021;50.882;4.326;2023-04-03T02:50:55;5.30;99.90
17795;DHT22;9021;50.882;4.326;2023-04-03T02:53:21;5.30;99.90
17795;DHT22;9021;50.882;4.326;2023-04-03T02:55:47;5.30;99.90
17795;DHT22;9021;50.882;4.326;2023-04-03T02:58:12;5.40;99.90
17795;DHT22;9021;50.882;4.326;2023-04-03T03:00:38;5.40;99.90
17795;DHT22;9021;50.882;4.326;2023-04-03T03:03:04;5.40;99.90
17795;DHT22;9021;50.882;4.326;2023-04-03T03:05:30;5.40;99.90
17795;DHT22;9021;50.882;4.326;2023-04-03T03:07:56;5.40;99.90
17795;DHT22;9021;50.882;4.326;2023-04-03T03:10:22;5.40;99.90
17795;DHT22;9021;50.882;4.326;2023-04-03T03:12:48;5.30;99.90
17795;DHT22;9021;50.882;4.326;2023-04-03T03:15:14;5.20;99.90
17795;DHT22;9021;50.882;4.326;2023-04-03T03:17:40;5.20;99.90
17795;DHT22;9021;50.882;4.326;2023-04-03T03:20:07;5.20;99.90
17795;DHT22;9021;50.882;4.326;2023-04-03T03:22:34;5.20;99.90
17795;DHT22;9021;50.882;4.326;2023-04-03T03:25:00;5.10;99.90
17795;DHT22;9021;50.882;4.326;2023-04-03T03:27:26;5.10;99.90
17795;DHT22;9021;50.882;4.326;2023-04-03T03:29:52;5.20;99.90
17795;DHT22;9021;50.882;4.326;2023-04-03T03:32:18;5.20;99.90
17795;DHT22;9021;50.882;4.326;2023-04-03T03:34:43;5.20;99.90
17795;DHT22;9021;50.882;4.326;2023-04-03T03:37:09;5.20;99.90
17795;DHT22;9021;50.882;4.326;2023-04-03T03:39:34;5.10;99.90
17795;DHT22;9021;50.882;4.326;2023-04-03T03:42:00;5.10;99.90
17795;DHT22;9021;50.882;4.326;2023-04-03T03:44:26;5.10;99.90
17795;DHT22;9021;50.882;4.326;2023-04-03T03:46:53;5.20;99.90
17795;DHT22;9021;50.882;4.326;2023-04-03T03:49:18;5.20;99.90
17795;DHT22;9021;50.882;4.326;2023-04-03T03:51:44;5.20;99.90
17795;DHT22;9021;50.882;4.326;2023-04-03T03:54:10;5.10;99.90
17795;DHT22;9021;50.882;4.326;2023-04-03T03:56:36;5.10;99.90
17795;DHT22;9021;50.882;4.326;2023-04-03T03:59:02;5.00;99.90
17795;DHT22;9021;50.882;4.326;2023-04-03T04:01:27;5.00;99.90
17795;DHT22;9021;50.882;4.326;2023-04-03T04:03:53;4.90;99.90
17795;DHT22;9021;50.882;4.326;2023-04-03T04:06:22;4.80;99.90
17795;DHT22;9021;50.882;4.326;2023-04-03T04:08:47;4.80;99.90
17795;DHT22;9021;50.882;4.326;2023-04-03T04:11:13;4.80;99.90
17795;DHT22;9021;50.882;4.326;2023-04-03T04:13:39;4.80;99.90
17795;DHT22;9021;50.882;4.326;2023-04-03T04:16:05;4.80;99.90
17795;DHT22;9021;50.882;4.326;2023-04-03T04:18:31;4.70;99.90
17795;DHT22;9021;50.882;4.326;2023-04-03T04:20:56;4.60;99.90
17795;DHT22;9021;50.882;4.326;2023-04-03T04:23:22;4.60;99.90
17795;DHT22;9021;50.882;4.326;2023-04-03T04:25:48;5.20;99.90
17795;DHT22;9021;50.882;4.326;2023-04-03T04:28:15;4.60;99.90
17795;DHT22;9021;50.882;4.326;2023-04-03T04:30:40;4.60;99.90
17795;DHT22;9021;50.882;4.326;2023-04-03T04:33:06;4.70;99.90
17795;DHT22;9021;50.882;4.326;2023-04-03T04:35:33;4.60;99.90
17795;DHT22;9021;50.882;4.326;2023-04-03T04:37:58;4.60;99.90
17795;DHT22;9021;50.882;4.326;2023-04-03T04:40:25;4.60;99.90
17795;DHT22;9021;50.882;4.326;2023-04-03T04:42:51;4.50;99.90
17795;DHT22;9021;50.882;4.326;2023-04-03T04:45:17;4.50;99.90
17795;DHT22;9021;50.882;4.326;2023-04-03T04:47:42;4.50;99.90
17795;DHT22;9021;50.882;4.326;2023-04-03T04:50:08;4.50;99.90
17795;DHT22;9021;50.882;4.326;2023-04-03T04:52:34;4.50;99.90
17795;DHT22;9021;50.882;4.326;2023-04-03T04:55:00;4.50;99.90
17795;DHT22;9021;50.882;4.326;2023-04-03T04:57:25;4.60;99.90
17795;DHT22;9021;50.882;4.326;2023-04-03T04:59:51;4.60;99.90
17795;DHT22;9021;50.882;4.326;2023-04-03T05:02:17;5.50;99.90
17795;DHT22;9021;50.882;4.326;2023-04-03T05:04:42;4.60;99.90
17795;DHT22;9021;50.882;4.326;2023-04-03T05:07:08;4.50;99.90
17795;DHT22;9021;50.882;4.326;2023-04-03T05:09:34;4.50;99.90
17795;DHT22;9021;50.882;4.326;2023-04-03T05:11:59;4.50;99.90
17795;DHT22;9021;50.882;4.326;2023-04-03T05:14:25;4.50;99.90
17795;DHT22;9021;50.882;4.326;2023-04-03T05:16:51;4.50;99.90
17795;DHT22;9021;50.882;4.326;2023-04-03T05:19:20;5.20;99.90
17795;DHT22;9021;50.882;4.326;2023-04-03T05:21:46;4.50;99.90
17795;DHT22;9021;50.882;4.326;2023-04-03T05:24:12;4.50;99.90
17795;DHT22;9021;50.882;4.326;2023-04-03T05:26:37;6.20;99.90
17795;DHT22;9021;50.882;4.326;2023-04-03T05:29:03;4.60;99.90
17795;DHT22;9021;50.882;4.326;2023-04-03T05:31:29;4.50;99.90
17795;DHT22;9021;50.882;4.326;2023-04-03T05:33:55;4.50;99.90
17795;DHT22;9021;50.882;4.326;2023-04-03T05:36:21;4.50;99.90
17795;DHT22;9021;50.882;4.326;2023-04-03T05:38:47;4.50;99.90
17795;DHT22;9021;50.882;4.326;2023-04-03T05:41:14;4.50;99.90
17795;DHT22;9021;50.882;4.326;2023-04-03T05:43:39;4.50;99.90
17795;DHT22;9021;50.882;4.326;2023-04-03T05:46:10;4.60;99.90
17795;DHT22;9021;50.882;4.326;2023-04-03T05:48:36;4.70;99.90
17795;DHT22;9021;50.882;4.326;2023-04-03T05:51:02;4.70;99.90
17795;DHT22;9021;50.882;4.326;2023-04-03T05:53:29;4.70;99.90
17795;DHT22;9021;50.882;4.326;2023-04-03T05:55:56;4.70;99.90
17795;DHT22;9021;50.882;4.326;2023-04-03T05:58:22;4.80;99.90
17795;DHT22;9021;50.882;4.326;2023-04-03T06:00:47;5.10;99.90
17795;DHT22;9021;50.882;4.326;2023-04-03T06:03:13;5.20;99.90
17795;DHT22;9021;50.882;4.326;2023-04-03T06:05:39;5.60;99.90
17795;DHT22;9021;50.882;4.326;2023-04-03T06:08:05;5.90;99.90
17795;DHT22;9021;50.882;4.326;2023-04-03T06:10:31;6.20;99.90
17795;DHT22;9021;50.882;4.326;2023-04-03T06:12:56;6.60;99.90
17795;DHT22;9021;50.882;4.326;2023-04-03T06:15:22;6.80;99.90
17795;DHT22;9021;50.882;4.326;2023-04-03T06:17:48;7.20;99.90
17795;DHT22;9021;50.882;4.326;2023-04-03T06:20:14;7.40;99.90
17795;DHT22;9021;50.882;4.326;2023-04-03T06:22:39;7.50;99.90
17795;DHT22;9021;50.882;4.326;2023-04-03T06:25:07;7.40;99.90
17795;DHT22;9021;50.882;4.326;2023-04-03T06:27:34;7.60;99.90
17795;DHT22;9021;50.882;4.326;2023-04-03T06:30:00;7.80;99.90
17795;DHT22;9021;50.882;4.326;2023-04-03T06:32:26;7.90;99.90
17795;DHT22;9021;50.882;4.326;2023-04-03T06:34:51;7.90;99.90
17795;DHT22;9021;50.882;4.326;2023-04-03T06:37:20;8.00;99.90
17795;DHT22;9021;50.882;4.326;2023-04-03T06:39:47;8.10;99.90
17795;DHT22;9021;50.882;4.326;2023-04-03T06:42:13;8.20;99.90
17795;DHT22;9021;50.882;4.326;2023-04-03T06:44:39;8.20;99.90
17795;DHT22;9021;50.882;4.326;2023-04-03T06:47:05;8.50;99.90
17795;DHT22;9021;50.882;4.326;2023-04-03T06:49:31;9.40;99.90
17795;DHT22;9021;50.882;4.326;2023-04-03T06:51:57;9.80;99.90
17795;DHT22;9021;50.882;4.326;2023-04-03T06:54:23;10.90;99.90
17795;DHT22;9021;50.882;4.326;2023-04-03T06:56:49;12.00;99.60
17795;DHT22;9021;50.882;4.326;2023-04-03T06:59:15;12.70;98.10
17795;DHT22;9021;50.882;4.326;2023-04-03T07:01:41;13.60;96.80
17795;DHT22;9021;50.882;4.326;2023-04-03T07:04:07;14.30;94.70
17795;DHT22;9021;50.882;4.326;2023-04-03T07:06:33;14.70;93.70
17795;DHT22;9021;50.882;4.326;2023-04-03T07:08:59;15.00;92.80
17795;DHT22;9021;50.882;4.326;2023-04-03T07:11:25;15.50;91.90
17795;DHT22;9021;50.882;4.326;2023-04-03T07:13:51;16.20;91.50
17795;DHT22;9021;50.882;4.326;2023-04-03T07:16:17;17.20;88.90
17795;DHT22;9021;50.882;4.326;2023-04-03T07:18:43;17.90;87.10
17795;DHT22;9021;50.882;4.326;2023-04-03T07:21:08;19.00;83.80
17795;DHT22;9021;50.882;4.326;2023-04-03T07:23:34;19.80;82.30
17795;DHT22;9021;50.882;4.326;2023-04-03T07:25:59;20.80;80.60
17795;DHT22;9021;50.882;4.326;2023-04-03T07:28:25;21.40;75.80
17795;DHT22;9021;50.882;4.326;2023-04-03T07:30:52;21.30;74.30
17795;DHT22;9021;50.882;4.326;2023-04-03T07:33:19;21.50;73.40
17795;DHT22;9021;50.882;4.326;2023-04-03T07:35:45;21.30;72.80
17795;DHT22;9021;50.882;4.326;2023-04-03T07:38:11;21.90;72.30
17795;DHT22;9021;50.882;4.326;2023-04-03T07:40:37;22.10;70.80
17795;DHT22;9021;50.882;4.326;2023-04-03T07:43:04;21.70;70.80
17795;DHT22;9021;50.882;4.326;2023-04-03T07:45:30;21.60;70.50
17795;DHT22;9021;50.882;4.326;2023-04-03T07:47:56;21.70;70.30
17795;DHT22;9021;50.882;4.326;2023-04-03T07:50:22;21.50;69.80
17795;DHT22;9021;50.882;4.326;2023-04-03T07:52:48;21.10;70.10
17795;DHT22;9021;50.882;4.326;2023-04-03T07:55:16;21.50;70.00
17795;DHT22;9021;50.882;4.326;2023-04-03T07:57:41;21.40;69.50
17795;DHT22;9021;50.882;4.326;2023-04-03T08:00:08;21.70;69.10
17795;DHT22;9021;50.882;4.326;2023-04-03T08:02:35;21.30;69.00
17795;DHT22;9021;50.882;4.326;2023-04-03T08:05:00;21.30;69.40
17795;DHT22;9021;50.882;4.326;2023-04-03T08:07:26;20.70;69.20
17795;DHT22;9021;50.882;4.326;2023-04-03T08:09:51;20.20;69.70
17795;DHT22;9021;50.882;4.326;2023-04-03T08:12:17;20.20;69.60
17795;DHT22;9021;50.882;4.326;2023-04-03T08:14:43;19.00;70.90
17795;DHT22;9021;50.882;4.326;2023-04-03T08:17:09;19.00;70.80
17795;DHT22;9021;50.882;4.326;2023-04-03T08:19:38;18.60;71.20
17795;DHT22;9021;50.882;4.326;2023-04-03T08:22:04;17.70;71.30
17795;DHT22;9021;50.882;4.326;2023-04-03T08:24:31;16.80;74.20
17795;DHT22;9021;50.882;4.326;2023-04-03T08:26:57;16.40;75.00
17795;DHT22;9021;50.882;4.326;2023-04-03T08:29:23;16.20;75.30
17795;DHT22;9021;50.882;4.326;2023-04-03T08:31:49;15.60;75.80
17795;DHT22;9021;50.882;4.326;2023-04-03T08:34:16;14.80;77.70
17795;DHT22;9021;50.882;4.326;2023-04-03T08:36:43;14.40;79.30
17795;DHT22;9021;50.882;4.326;2023-04-03T08:39:08;14.20;79.90
17795;DHT22;9021;50.882;4.326;2023-04-03T08:41:41;14.20;80.70
17795;DHT22;9021;50.882;4.326;2023-04-03T08:51:55;13.80;79.70
17795;DHT22;9021;50.882;4.326;2023-04-03T08:54:33;13.70;79.90
17795;DHT22;9021;50.882;4.326;2023-04-03T08:57:02;13.90;81.10
17795;DHT22;9021;50.882;4.326;2023-04-03T08:59:34;13.50;80.30
17795;DHT22;9021;50.882;4.326;2023-04-03T09:02:16;13.20;80.70
17795;DHT22;9021;50.882;4.326;2023-04-03T09:04:43;13.30;80.70
17795;DHT22;9021;50.882;4.326;2023-04-03T09:07:16;12.90;82.30
17795;DHT22;9021;50.882;4.326;2023-04-03T09:09:43;12.60;83.30
17795;DHT22;9021;50.882;4.326;2023-04-03T09:14:49;12.30;85.10
17795;DHT22;9021;50.882;4.326;2023-04-03T09:20:26;12.90;81.80
17795;DHT22;9021;50.882;4.326;2023-04-03T09:22:56;12.70;81.20
17795;DHT22;9021;50.882;4.326;2023-04-03T09:25:33;12.80;82.20
17795;DHT22;9021;50.882;4.326;2023-04-03T09:28:00;12.90;80.10
17795;DHT22;9021;50.882;4.326;2023-04-03T09:30:27;13.10;81.00
17795;DHT22;9021;50.882;4.326;2023-04-03T09:32:56;13.00;81.30
17795;DHT22;9021;50.882;4.326;2023-04-03T09:35:33;13.10;80.30
17795;DHT22;9021;50.882;4.326;2023-04-03T09:38:16;13.20;80.20
17795;DHT22;9021;50.882;4.326;2023-04-03T09:40:43;12.80;80.90
17795;DHT22;9021;50.882;4.326;2023-04-03T09:43:24;12.50;81.80
17795;DHT22;9021;50.882;4.326;2023-04-03T09:45:51;12.10;82.50
17795;DHT22;9021;50.882;4.326;2023-04-03T09:48:25;12.00;80.20
17795;DHT22;9021;50.882;4.326;2023-04-03T09:53:30;13.00;81.00
17795;DHT22;9021;50.882;4.326;2023-04-03T09:55:57;12.50;80.80
17795;DHT22;9021;50.882;4.326;2023-04-03T09:58:28;12.40;80.50
17795;DHT22;9021;50.882;4.326;2023-04-03T10:00:57;12.50;79.80
17795;DHT22;9021;50.882;4.326;2023-04-03T10:03:30;11.70;79.70
17795;DHT22;9021;50.882;4.326;2023-04-03T10:05:56;12.50;81.40
17795;DHT22;9021;50.882;4.326;2023-04-03T10:08:29;12.30;80.20
17795;DHT22;9021;50.882;4.326;2023-04-03T10:11:17;12.40;82.00
17795;DHT22;9021;50.882;4.326;2023-04-03T10:13:58;12.70;81.30
17795;DHT22;9021;50.882;4.326;2023-04-03T10:16:29;12.90;78.80
17795;DHT22;9021;50.882;4.326;2023-04-03T10:22:23;13.30;79.20
17795;DHT22;9021;50.882;4.326;2023-04-03T10:25:21;13.20;79.20
17795;DHT22;9021;50.882;4.326;2023-04-03T10:30:46;13.10;80.30
17795;DHT22;9021;50.882;4.326;2023-04-03T10:33:28;12.90;79.50
17795;DHT22;9021;50.882;4.326;2023-04-03T10:36:19;12.80;79.20
17795;DHT22;9021;50.882;4.326;2023-04-03T10:42:04;14.70;77.60
17795;DHT22;9021;50.882;4.326;2023-04-03T10:45:08;16.10;75.40
17795;DHT22;9021;50.882;4.326;2023-04-03T10:53:29;15.50;73.90
17795;DHT22;9021;50.882;4.326;2023-04-03T10:56:03;14.80;74.50
17795;DHT22;9021;50.882;4.326;2023-04-03T10:58:37;14.40;75.80
17795;DHT22;9021;50.882;4.326;2023-04-03T11:01:15;14.70;73.40
17795;DHT22;9021;50.882;4.326;2023-04-03T11:03:53;15.00;74.10
17795;DHT22;9021;50.882;4.326;2023-04-03T11:06:21;15.10;72.80
17795;DHT22;9021;50.882;4.326;2023-04-03T11:08:56;15.10;72.20
17795;DHT22;9021;50.882;4.326;2023-04-03T11:11:29;15.60;72.50
17795;DHT22;9021;50.882;4.326;2023-04-03T11:16:50;16.20;74.20
17795;DHT22;9021;50.882;4.326;2023-04-03T11:19:21;15.90;71.80
17795;DHT22;9021;50.882;4.326;2023-04-03T11:22:03;16.40;71.10
17795;DHT22;9021;50.882;4.326;2023-04-03T11:24:32;17.10;69.90
17795;DHT22;9021;50.882;4.326;2023-04-03T11:27:00;18.50;70.50
17795;DHT22;9021;50.882;4.326;2023-04-03T11:29:40;20.40;66.30
17795;DHT22;9021;50.882;4.326;2023-04-03T11:32:42;19.90;65.20
17795;DHT22;9021;50.882;4.326;2023-04-03T11:35:14;21.30;63.90
17795;DHT22;9021;50.882;4.326;2023-04-03T11:37:49;21.30;61.50
17795;DHT22;9021;50.882;4.326;2023-04-03T11:42:47;20.50;60.90
17795;DHT22;9021;50.882;4.326;2023-04-03T11:45:40;20.40;61.90
17795;DHT22;9021;50.882;4.326;2023-04-03T11:50:47;21.80;62.00
17795;DHT22;9021;50.882;4.326;2023-04-03T11:55:46;23.60;58.20
17795;DHT22;9021;50.882;4.326;2023-04-03T11:58:19;22.80;59.80
17795;DHT22;9021;50.882;4.326;2023-04-03T12:05:51;23.20;57.30
17795;DHT22;9021;50.882;4.326;2023-04-03T12:08:43;24.70;56.30
17795;DHT22;9021;50.882;4.326;2023-04-03T12:11:26;25.70;55.00
17795;DHT22;9021;50.882;4.326;2023-04-03T12:24:28;24.00;55.20
17795;DHT22;9021;50.882;4.326;2023-04-03T12:37:24;21.30;54.50
17795;DHT22;9021;50.882;4.326;2023-04-03T12:40:15;20.90;54.80
17795;DHT22;9021;50.882;4.326;2023-04-03T12:45:21;21.10;56.40
17795;DHT22;9021;50.882;4.326;2023-04-03T12:47:49;21.70;55.40
17795;DHT22;9021;50.882;4.326;2023-04-03T12:52:50;20.90;55.40
17795;DHT22;9021;50.882;4.326;2023-04-03T12:55:18;21.60;55.50
17795;DHT22;9021;50.882;4.326;2023-04-03T12:57:44;22.10;54.20
17795;DHT22;9021;50.882;4.326;2023-04-03T13:00:39;22.30;54.90
17795;DHT22;9021;50.882;4.326;2023-04-03T13:03:06;21.80;54.20
17795;DHT22;9021;50.882;4.326;2023-04-03T13:05:45;20.70;54.60
17795;DHT22;9021;50.882;4.326;2023-04-03T13:08:12;20.20;54.80
17795;DHT22;9021;50.882;4.326;2023-04-03T13:10:51;20.70;55.10
17795;DHT22;9021;50.882;4.326;2023-04-03T13:13:17;20.60;53.80
17795;DHT22;9021;50.882;4.326;2023-04-03T13:15:48;19.60;54.30
17795;DHT22;9021;50.882;4.326;2023-04-03T13:20:55;18.70;56.70
17795;DHT22;9021;50.882;4.326;2023-04-03T13:23:22;18.90;57.80
17795;DHT22;9021;50.882;4.326;2023-04-03T13:25:48;19.40;56.60
17795;DHT22;9021;50.882;4.326;2023-04-03T13:28:19;19.60;56.70
17795;DHT22;9021;50.882;4.326;2023-04-03T13:31:08;19.30;54.40
17795;DHT22;9021;50.882;4.326;2023-04-03T13:33:37;19.60;55.20
17795;DHT22;9021;50.882;4.326;2023-04-03T13:36:29;19.10;54.10
17795;DHT22;9021;50.882;4.326;2023-04-03T13:41:42;17.80;54.30
17795;DHT22;9021;50.882;4.326;2023-04-03T13:46:58;16.90;56.10
17795;DHT22;9021;50.882;4.326;2023-04-03T13:49:37;16.70;57.20
17795;DHT22;9021;50.882;4.326;2023-04-03T13:52:38;16.20;56.20
17795;DHT22;9021;50.882;4.326;2023-04-03T13:55:24;15.70;57.70
17795;DHT22;9021;50.882;4.326;2023-04-03T13:57:56;15.60;57.20
17795;DHT22;9021;50.882;4.326;2023-04-03T14:00:31;15.60;57.90
17795;DHT22;9021;50.882;4.326;2023-04-03T14:02:57;15.50;58.20
17795;DHT22;9021;50.882;4.326;2023-04-03T14:05:24;15.50;59.00
17795;DHT22;9021;50.882;4.326;2023-04-03T14:07:51;15.20;58.10
17795;DHT22;9021;50.882;4.326;2023-04-03T14:10:17;15.00;59.20
17795;DHT22;9021;50.882;4.326;2023-04-03T14:12:43;14.90;59.90
17795;DHT22;9021;50.882;4.326;2023-04-03T14:15:25;15.10;60.20
17795;DHT22;9021;50.882;4.326;2023-04-03T14:17:52;15.30;58.70
17795;DHT22;9021;50.882;4.326;2023-04-03T14:20:21;15.50;59.80
17795;DHT22;9021;50.882;4.326;2023-04-03T14:22:47;15.60;58.90
17795;DHT22;9021;50.882;4.326;2023-04-03T14:25:14;15.50;58.80
17795;DHT22;9021;50.882;4.326;2023-04-03T14:27:45;15.40;59.00
17795;DHT22;9021;50.882;4.326;2023-04-03T14:30:16;15.20;58.80
17795;DHT22;9021;50.882;4.326;2023-04-03T14:32:42;15.40;59.70
17795;DHT22;9021;50.882;4.326;2023-04-03T14:35:08;15.60;58.50
17795;DHT22;9021;50.882;4.326;2023-04-03T14:37:34;15.20;57.70
17795;DHT22;9021;50.882;4.326;2023-04-03T14:40:02;15.40;58.50
17795;DHT22;9021;50.882;4.326;2023-04-03T14:42:34;14.20;58.10
17795;DHT22;9021;50.882;4.326;2023-04-03T14:45:10;15.00;57.60
17795;DHT22;9021;50.882;4.326;2023-04-03T14:47:41;15.00;57.80
17795;DHT22;9021;50.882;4.326;2023-04-03T14:50:11;15.40;60.10
17795;DHT22;9021;50.882;4.326;2023-04-03T14:52:36;15.70;57.90
17795;DHT22;9021;50.882;4.326;2023-04-03T14:55:05;15.70;57.30
17795;DHT22;9021;50.882;4.326;2023-04-03T14:57:32;15.70;58.20
17795;DHT22;9021;50.882;4.326;2023-04-03T14:59:58;15.40;57.70
17795;DHT22;9021;50.882;4.326;2023-04-03T15:02:32;15.10;58.20
17795;DHT22;9021;50.882;4.326;2023-04-03T15:05:00;15.10;58.40
17795;DHT22;9021;50.882;4.326;2023-04-03T15:07:28;15.30;59.60
17795;DHT22;9021;50.882;4.326;2023-04-03T15:09:54;15.40;58.40
17795;DHT22;9021;50.882;4.326;2023-04-03T15:12:23;15.40;59.40
17795;DHT22;9021;50.882;4.326;2023-04-03T15:14:49;15.20;59.30
17795;DHT22;9021;50.882;4.326;2023-04-03T15:17:18;15.10;59.80
17795;DHT22;9021;50.882;4.326;2023-04-03T15:19:45;15.20;58.80
17795;DHT22;9021;50.882;4.326;2023-04-03T15:22:15;15.30;59.20
17795;DHT22;9021;50.882;4.326;2023-04-03T15:24:41;15.40;59.40
17795;DHT22;9021;50.882;4.326;2023-04-03T15:27:08;15.70;58.90
17795;DHT22;9021;50.882;4.326;2023-04-03T15:29:34;15.70;57.90
17795;DHT22;9021;50.882;4.326;2023-04-03T15:32:00;15.50;58.50
17795;DHT22;9021;50.882;4.326;2023-04-03T15:34:26;15.30;59.70
17795;DHT22;9021;50.882;4.326;2023-04-03T15:36:52;15.50;59.50
17795;DHT22;9021;50.882;4.326;2023-04-03T15:39:18;15.40;59.00
17795;DHT22;9021;50.882;4.326;2023-04-03T15:41:44;15.10;57.80
17795;DHT22;9021;50.882;4.326;2023-04-03T15:44:10;15.00;58.80
17795;DHT22;9021;50.882;4.326;2023-04-03T15:46:37;14.90;59.40
17795;DHT22;9021;50.882;4.326;2023-04-03T15:49:04;15.00;59.40
17795;DHT22;9021;50.882;4.326;2023-04-03T15:51:30;15.00;59.50
17795;DHT22;9021;50.882;4.326;2023-04-03T15:53:55;14.70;59.20
17795;DHT22;9021;50.882;4.326;2023-04-03T15:56:21;14.50;59.10
17795;DHT22;9021;50.882;4.326;2023-04-03T15:58:47;14.70;60.00
17795;DHT22;9021;50.882;4.326;2023-04-03T16:01:12;14.60;57.90
17795;DHT22;9021;50.882;4.326;2023-04-03T16:03:40;14.40;59.60
17795;DHT22;9021;50.882;4.326;2023-04-03T16:06:11;13.20;58.80
17795;DHT22;9021;50.882;4.326;2023-04-03T16:08:37;14.50;59.10
17795;DHT22;9021;50.882;4.326;2023-04-03T16:11:03;14.30;59.90
17795;DHT22;9021;50.882;4.326;2023-04-03T16:13:28;14.10;58.50
17795;DHT22;9021;50.882;4.326;2023-04-03T16:15:54;13.90;58.90
17795;DHT22;9021;50.882;4.326;2023-04-03T16:18:20;13.80;60.40
17795;DHT22;9021;50.882;4.326;2023-04-03T16:20:46;13.90;60.20
17795;DHT22;9021;50.882;4.326;2023-04-03T16:23:12;14.00;59.60
17795;DHT22;9021;50.882;4.326;2023-04-03T16:25:38;13.80;59.60
17795;DHT22;9021;50.882;4.326;2023-04-03T16:28:04;13.80;59.70
17795;DHT22;9021;50.882;4.326;2023-04-03T16:30:29;13.80;60.00
17795;DHT22;9021;50.882;4.326;2023-04-03T16:32:56;13.90;60.20
17795;DHT22;9021;50.882;4.326;2023-04-03T16:35:22;13.80;59.80
17795;DHT22;9021;50.882;4.326;2023-04-03T16:37:48;13.70;59.90
17795;DHT22;9021;50.882;4.326;2023-04-03T16:40:14;13.70;60.70
17795;DHT22;9021;50.882;4.326;2023-04-03T16:42:39;13.50;61.20
17795;DHT22;9021;50.882;4.326;2023-04-03T16:45:11;13.60;61.20
17795;DHT22;9021;50.882;4.326;2023-04-03T16:47:37;13.40;60.90
17795;DHT22;9021;50.882;4.326;2023-04-03T16:50:03;13.40;62.00
17795;DHT22;9021;50.882;4.326;2023-04-03T16:52:28;13.40;62.60
17795;DHT22;9021;50.882;4.326;2023-04-03T16:54:54;13.50;62.80
17795;DHT22;9021;50.882;4.326;2023-04-03T16:57:22;13.40;62.40
17795;DHT22;9021;50.882;4.326;2023-04-03T16:59:50;13.40;63.50
17795;DHT22;9021;50.882;4.326;2023-04-03T17:02:16;13.50;64.00
17795;DHT22;9021;50.882;4.326;2023-04-03T17:04:42;13.40;62.70
17795;DHT22;9021;50.882;4.326;2023-04-03T17:07:07;13.40;63.70
17795;DHT22;9021;50.882;4.326;2023-04-03T17:09:33;13.70;63.60
17795;DHT22;9021;50.882;4.326;2023-04-03T17:11:59;13.00;62.60
17795;DHT22;9021;50.882;4.326;2023-04-03T17:14:25;12.90;63.50
17795;DHT22;9021;50.882;4.326;2023-04-03T17:16:51;12.90;63.30
17795;DHT22;9021;50.882;4.326;2023-04-03T17:19:17;12.40;63.20
17795;DHT22;9021;50.882;4.326;2023-04-03T17:21:44;12.80;66.30
17795;DHT22;9021;50.882;4.326;2023-04-03T17:24:11;14.00;64.40
17795;DHT22;9021;50.882;4.326;2023-04-03T17:26:39;12.70;63.60
17795;DHT22;9021;50.882;4.326;2023-04-03T17:29:05;12.50;64.10
17795;DHT22;9021;50.882;4.326;2023-04-03T17:31:40;12.40;64.60
17795;DHT22;9021;50.882;4.326;2023-04-03T17:34:06;12.40;63.50